Time;durP1;ratioP1;P1;durP2;ratioP2;P2;SDS_P1;SDS_P2;PMS_P1;PMS_P2;Temp;Humidity;BMP_temperature;BMP_pressure;BME280_temperature;BME280_humidity;BME280_pressure;Samples;Min_cycle;Max_cycle;Signal;HPM_P1;HPM_P2
2022/07/15 00:03:41;;;;;;;2.00;0.40;;;14.70;99.90;;;;;;20784493;28;20096;-81
2022/07/15 00:13:42;;;;;;;1.00;0.35;;;14.60;99.90;;;;;;20799126;28;20100;-81
2022/07/15 00:23:43;;;;;;;1.08;0.40;;;14.50;99.90;;;;;;20783622;28;20087;-81
2022/07/15 00:33:44;;;;;;;1.38;0.32;;;14.40;99.90;;;;;;20780250;28;20034;-80
2022/07/15 00:43:46;;;;;;;0.85;0.40;;;14.30;99.90;;;;;;20858453;28;20063;-81
2022/07/15 00:53:48;;;;;;;3.25;0.43;;;14.30;99.90;;;;;;20864925;28;20076;-81
2022/07/15 01:03:50;;;;;;;1.77;0.40;;;14.10;99.90;;;;;;20875565;28;20087;-83
2022/07/15 01:13:51;;;;;;;2.50;0.40;;;14.10;99.90;;;;;;20902011;28;20504;-83
2022/07/15 01:23:52;;;;;;;0.82;0.30;;;13.90;99.90;;;;;;20891623;28;20097;-84
2022/07/15 01:33:54;;;;;;;1.10;0.40;;;13.90;99.90;;;;;;20868626;28;20036;-84
2022/07/15 01:43:54;;;;;;;1.35;0.43;;;13.70;99.90;;;;;;20870003;28;20041;-84
2022/07/15 01:53:56;;;;;;;1.25;0.50;;;13.70;99.90;;;;;;20872613;28;20403;-83
2022/07/15 02:03:57;;;;;;;1.42;0.30;;;13.70;99.90;;;;;;20876485;28;20078;-84
2022/07/15 02:13:59;;;;;;;2.03;0.32;;;13.60;99.90;;;;;;20881186;28;20040;-84
2022/07/15 02:24:00;;;;;;;0.77;0.20;;;13.40;99.90;;;;;;20907748;28;20753;-84
2022/07/15 02:34:02;;;;;;;0.85;0.35;;;13.40;99.90;;;;;;20883306;28;20045;-84
2022/07/15 02:44:05;;;;;;;0.47;0.20;;;13.30;99.90;;;;;;20879797;28;20162;-84
2022/07/15 02:54:06;;;;;;;1.17;0.30;;;13.20;99.90;;;;;;20888376;28;20081;-84
2022/07/15 03:04:07;;;;;;;0.65;0.20;;;13.20;99.90;;;;;;20895347;28;20037;-84
2022/07/15 03:14:09;;;;;;;1.05;0.35;;;13.20;99.90;;;;;;20903705;28;20039;-84
2022/07/15 03:24:12;;;;;;;1.75;0.60;;;13.10;99.90;;;;;;20938981;28;20362;-83
2022/07/15 03:34:14;;;;;;;0.68;0.20;;;13.00;99.90;;;;;;20887076;28;20041;-83
2022/07/15 03:44:15;;;;;;;4.05;0.40;;;12.90;99.90;;;;;;20898490;28;20044;-83
2022/07/15 03:54:16;;;;;;;0.77;0.32;;;12.90;99.90;;;;;;20886357;28;20095;-84
2022/07/15 04:04:17;;;;;;;0.60;0.20;;;12.80;99.90;;;;;;20886738;28;20124;-84
2022/07/15 04:14:18;;;;;;;2.75;0.30;;;12.90;99.90;;;;;;20891863;28;21125;-84
2022/07/15 04:24:18;;;;;;;1.83;0.15;;;12.90;99.90;;;;;;20898066;28;20049;-84
2022/07/15 04:34:20;;;;;;;2.22;0.30;;;13.00;99.90;;;;;;20891445;28;20048;-84
2022/07/15 04:44:21;;;;;;;1.05;0.30;;;13.00;99.90;;;;;;20902590;28;20033;-84
2022/07/15 04:54:21;;;;;;;4.03;0.95;;;13.20;99.90;;;;;;20887994;28;20041;-84
2022/07/15 05:04:22;;;;;;;0.65;0.20;;;13.40;99.90;;;;;;20885740;28;20036;-84
2022/07/15 05:14:25;;;;;;;0.75;0.20;;;14.00;99.90;;;;;;20887511;28;20583;-84
2022/07/15 05:24:26;;;;;;;1.25;0.28;;;14.50;99.90;;;;;;20887439;28;20062;-84
2022/07/15 05:34:27;;;;;;;1.38;0.20;;;14.80;99.90;;;;;;20890220;28;20060;-84
2022/07/15 05:44:28;;;;;;;0.45;0.13;;;15.20;99.90;;;;;;20880631;28;20045;-84
2022/07/15 05:54:29;;;;;;;1.05;0.17;;;15.50;99.90;;;;;;20909116;28;20398;-84
2022/07/15 06:04:31;;;;;;;0.55;0.20;;;15.90;99.90;;;;;;20897045;28;20036;-84
2022/07/15 06:14:32;;;;;;;1.20;0.20;;;16.30;99.90;;;;;;20901111;28;20036;-84
2022/07/15 06:24:33;;;;;;;1.02;0.30;;;16.40;99.90;;;;;;20897120;28;20456;-84
2022/07/15 06:34:34;;;;;;;1.35;0.30;;;16.60;99.90;;;;;;20904618;28;20350;-80
2022/07/15 06:44:35;;;;;;;0.65;0.20;;;17.00;99.90;;;;;;20897112;28;20048;-79
2022/07/15 06:54:36;;;;;;;2.40;0.82;;;17.20;99.90;;;;;;20886363;28;21308;-80
2022/07/15 07:04:38;;;;;;;2.97;0.57;;;17.40;99.90;;;;;;20894085;28;20488;-83
2022/07/15 07:14:39;;;;;;;0.30;0.10;;;17.40;99.90;;;;;;20908586;28;20033;-81
2022/07/15 07:24:40;;;;;;;1.00;0.32;;;17.30;99.90;;;;;;20896600;28;20059;-83
2022/07/15 07:34:41;;;;;;;0.68;0.30;;;17.30;99.90;;;;;;20899764;28;20780;-81
2022/07/15 07:44:42;;;;;;;0.45;0.10;;;17.50;99.90;;;;;;20908690;28;20508;-81
2022/07/15 07:54:43;;;;;;;0.88;0.30;;;17.50;99.90;;;;;;20912211;28;20082;-82
2022/07/15 08:04:44;;;;;;;0.47;0.10;;;17.60;99.90;;;;;;20905666;28;20082;-81
2022/07/15 08:14:45;;;;;;;0.28;0.10;;;17.80;99.90;;;;;;20903322;28;20055;-81
2022/07/15 08:24:49;;;;;;;0.73;0.28;;;18.00;99.90;;;;;;20895687;28;20040;-81
2022/07/15 08:34:50;;;;;;;0.30;0.13;;;18.20;99.90;;;;;;20913127;28;20037;-81
2022/07/15 08:44:53;;;;;;;1.50;0.20;;;18.70;99.90;;;;;;20912186;28;20032;-81
2022/07/15 08:54:54;;;;;;;0.10;0.00;;;18.90;99.90;;;;;;20901254;28;20052;-82
2022/07/15 09:05:28;;;;;;;0.50;0.20;;;18.90;99.90;;;;;;20915464;28;20033;-82
2022/07/15 09:15:35;;;;;;;0.13;0.00;;;19.00;99.90;;;;;;20907886;28;21571;-81
2022/07/15 09:25:37;;;;;;;0.60;0.10;;;19.00;99.90;;;;;;20896368;28;20033;-82
2022/07/15 09:46:01;;;;;;;1.13;0.30;;;19.90;99.90;;;;;;20905130;28;20029;-82
2022/07/15 09:56:06;;;;;;;0.00;0.00;;;19.80;99.90;;;;;;20908573;28;20069;-82
2022/07/15 10:06:09;;;;;;;0.20;0.10;;;19.70;99.90;;;;;;20894505;28;20039;-82
2022/07/15 10:16:33;;;;;;;0.20;0.10;;;20.10;99.90;;;;;;20898505;28;20047;-81
2022/07/15 10:26:50;;;;;;;0.47;0.13;;;20.70;99.90;;;;;;20913214;28;21504;-82
2022/07/15 10:36:52;;;;;;;0.75;0.10;;;21.00;99.90;;;;;;20944570;28;20060;-82
2022/07/15 10:47:12;;;;;;;0.30;0.10;;;20.90;99.90;;;;;;20919164;28;20048;-82
2022/07/15 10:57:16;;;;;;;0.60;0.20;;;20.90;99.90;;;;;;20912191;28;20621;-81
2022/07/15 11:07:16;;;;;;;0.35;0.13;;;20.50;99.90;;;;;;20895973;28;20192;-81
2022/07/15 11:17:24;;;;;;;0.20;0.00;;;21.10;99.90;;;;;;20912781;28;20056;-80
2022/07/15 11:27:26;;;;;;;4.55;0.40;;;21.10;99.90;;;;;;20900345;28;20037;-80
2022/07/15 11:37:35;;;;;;;1.27;0.40;;;21.60;99.90;;;;;;20908320;28;20094;-82
2022/07/15 11:47:51;;;;;;;1.02;0.20;;;21.80;99.90;;;;;;20918249;28;20036;-81
2022/07/15 11:57:52;;;;;;;0.60;0.20;;;21.40;99.90;;;;;;20912541;28;20071;-81
2022/07/15 12:07:54;;;;;;;0.70;0.30;;;21.70;99.90;;;;;;20903147;28;20036;-81
2022/07/15 12:17:56;;;;;;;0.70;0.20;;;22.10;99.90;;;;;;20929830;28;20048;-81
2022/07/15 12:27:57;;;;;;;1.00;0.55;;;21.60;99.90;;;;;;20899905;28;20438;-82
2022/07/15 12:37:58;;;;;;;0.50;0.22;;;22.40;99.90;;;;;;20885592;28;20539;-80
2022/07/15 12:48:08;;;;;;;0.73;0.28;;;22.80;99.90;;;;;;20849813;28;20612;-81
2022/07/15 12:58:11;;;;;;;1.67;1.25;;;23.50;99.90;;;;;;20860232;28;20088;-80
2022/07/15 13:08:18;;;;;;;0.70;0.20;;;23.40;99.60;;;;;;20885722;28;22263;-81
2022/07/15 13:18:20;;;;;;;1.38;0.68;;;22.60;99.90;;;;;;20863551;28;20328;-81
2022/07/15 13:28:24;;;;;;;1.48;0.50;;;22.90;99.90;;;;;;20857019;28;20574;-82
2022/07/15 13:38:25;;;;;;;0.65;0.30;;;23.40;99.90;;;;;;20852690;28;20135;-81
2022/07/15 13:48:26;;;;;;;2.47;0.45;;;23.20;99.90;;;;;;20885831;28;20048;-82
2022/07/15 13:58:27;;;;;;;1.40;0.30;;;23.50;99.90;;;;;;20886126;28;20037;-81
2022/07/15 14:08:29;;;;;;;0.63;0.40;;;23.70;99.90;;;;;;20905342;28;20067;-81
2022/07/15 14:18:48;;;;;;;0.80;0.30;;;24.00;99.70;;;;;;20911746;28;20049;-81
2022/07/15 14:28:49;;;;;;;0.50;0.22;;;23.90;99.90;;;;;;20921968;28;20427;-81
2022/07/15 14:38:50;;;;;;;1.90;0.38;;;23.40;99.90;;;;;;20926421;28;20110;-82
2022/07/15 14:48:51;;;;;;;0.85;0.20;;;23.00;99.90;;;;;;20907474;28;20024;-81
2022/07/15 14:58:52;;;;;;;0.70;0.22;;;23.00;99.90;;;;;;20907645;28;20078;-82
2022/07/15 15:08:53;;;;;;;1.25;0.38;;;23.00;99.90;;;;;;20909765;28;20140;-82
2022/07/15 15:18:54;;;;;;;0.77;0.30;;;23.00;99.90;;;;;;20912026;28;20055;-82
2022/07/15 15:28:57;;;;;;;0.80;0.50;;;22.60;99.90;;;;;;20924849;28;20150;-82
2022/07/15 15:38:58;;;;;;;1.23;0.40;;;22.80;99.90;;;;;;20906916;28;20037;-81
2022/07/15 15:49:00;;;;;;;1.17;0.50;;;22.50;99.90;;;;;;20918192;28;20035;-81
2022/07/15 15:59:01;;;;;;;1.10;0.45;;;22.40;99.90;;;;;;20912481;28;20040;-81
2022/07/15 16:09:02;;;;;;;1.13;0.57;;;22.70;99.90;;;;;;20923041;28;20029;-81
2022/07/15 16:19:03;;;;;;;1.80;0.60;;;22.50;99.90;;;;;;20921058;28;20087;-82
2022/07/15 16:29:04;;;;;;;1.73;0.60;;;22.40;99.90;;;;;;20907226;28;20082;-82
2022/07/15 16:39:05;;;;;;;5.20;0.63;;;22.20;99.90;;;;;;20909277;28;20041;-82
2022/07/15 16:49:06;;;;;;;0.88;0.30;;;22.00;99.90;;;;;;20913620;28;20086;-82
2022/07/15 16:59:07;;;;;;;1.23;0.40;;;21.80;99.90;;;;;;20910103;28;20331;-82
2022/07/15 17:09:09;;;;;;;0.35;0.15;;;21.60;99.90;;;;;;20924164;28;20033;-82
2022/07/15 17:19:10;;;;;;;0.50;0.20;;;21.30;99.90;;;;;;20915338;28;20426;-83
2022/07/15 17:29:11;;;;;;;0.50;0.20;;;21.30;99.90;;;;;;20902762;28;20083;-82
2022/07/15 17:39:12;;;;;;;0.38;0.20;;;21.10;99.90;;;;;;20893335;28;20108;-82
2022/07/15 17:49:13;;;;;;;0.50;0.13;;;21.10;99.90;;;;;;20886308;28;20040;-81
2022/07/15 17:59:14;;;;;;;0.75;0.40;;;20.80;99.90;;;;;;20873232;28;20033;-82
2022/07/15 18:09:15;;;;;;;0.20;0.10;;;20.70;99.90;;;;;;20881747;28;20118;-82
2022/07/15 18:19:16;;;;;;;0.80;0.10;;;20.60;99.90;;;;;;20871041;28;20134;-82
2022/07/15 18:29:17;;;;;;;0.10;0.10;;;20.60;99.90;;;;;;20873961;28;20037;-81
2022/07/15 18:39:19;;;;;;;1.90;0.30;;;20.40;99.90;;;;;;20885345;28;20076;-81
2022/07/15 18:49:20;;;;;;;0.47;0.20;;;20.30;99.90;;;;;;20887897;28;20446;-82
2022/07/15 18:59:20;;;;;;;0.40;0.10;;;20.10;99.90;;;;;;20918114;28;20443;-82
2022/07/15 19:09:21;;;;;;;0.43;0.10;;;20.00;99.90;;;;;;20911211;28;20753;-82
2022/07/15 19:19:23;;;;;;;0.40;0.13;;;19.80;99.90;;;;;;20912185;28;20037;-82
2022/07/15 19:29:24;;;;;;;0.10;0.10;;;19.70;99.90;;;;;;20899391;28;20041;-82
2022/07/15 19:39:25;;;;;;;1.10;0.28;;;19.60;99.90;;;;;;20893499;28;20055;-82
2022/07/15 19:49:26;;;;;;;0.30;0.10;;;19.40;99.90;;;;;;20924346;28;20045;-83
2022/07/15 20:09:46;;;;;;;0.32;0.20;;;19.30;99.90;;;;;;20913806;28;20515;-83
2022/07/15 20:19:48;;;;;;;0.35;0.10;;;19.20;99.90;;;;;;20895700;28;20488;-82
2022/07/15 20:29:49;;;;;;;0.30;0.10;;;19.00;99.90;;;;;;20908796;28;20542;-82
2022/07/15 20:39:50;;;;;;;1.00;0.50;;;19.00;99.90;;;;;;20910706;28;20048;-82
2022/07/15 20:49:51;;;;;;;0.50;0.10;;;18.90;99.90;;;;;;20909283;28;20153;-83
2022/07/15 20:59:52;;;;;;;0.10;0.00;;;18.90;99.90;;;;;;20900134;28;20041;-82
2022/07/15 21:09:53;;;;;;;2.72;0.52;;;18.80;99.90;;;;;;20898179;28;20041;-82
2022/07/15 21:19:54;;;;;;;0.60;0.20;;;18.70;99.90;;;;;;20901166;28;20036;-82
2022/07/15 21:29:55;;;;;;;0.60;0.30;;;18.60;99.90;;;;;;20890591;28;20033;-82
2022/07/15 21:39:56;;;;;;;0.68;0.30;;;18.60;99.90;;;;;;20905370;28;20044;-83
2022/07/15 21:49:57;;;;;;;1.17;0.30;;;18.50;99.90;;;;;;20907614;28;20134;-82
2022/07/15 21:59:58;;;;;;;0.55;0.20;;;18.40;99.90;;;;;;20903139;28;20144;-83
2022/07/15 22:09:59;;;;;;;0.32;0.10;;;18.10;99.90;;;;;;20892816;28;20041;-83
2022/07/15 22:20:01;;;;;;;1.27;0.30;;;17.90;99.90;;;;;;20884123;28;20044;-82
2022/07/15 22:30:02;;;;;;;0.93;0.20;;;17.80;99.90;;;;;;20926098;28;20040;-83
2022/07/15 22:40:04;;;;;;;0.32;0.17;;;17.60;99.90;;;;;;20895582;28;20094;-83
2022/07/15 22:50:06;;;;;;;12.45;2.85;;;17.30;99.90;;;;;;20882129;28;20052;-83
2022/07/15 23:00:08;;;;;;;2.03;0.57;;;17.20;99.90;;;;;;20884419;28;20049;-83
2022/07/15 23:10:09;;;;;;;0.88;0.32;;;17.10;99.90;;;;;;20894468;28;20029;-83
2022/07/15 23:20:11;;;;;;;0.82;0.30;;;17.10;99.90;;;;;;20889032;28;20036;-83
2022/07/15 23:30:12;;;;;;;0.85;0.30;;;17.10;99.90;;;;;;20891562;28;20048;-83
2022/07/15 23:40:13;;;;;;;0.50;0.20;;;17.30;99.90;;;;;;20890641;28;20041;-83
2022/07/15 23:50:14;;;;;;;1.52;0.40;;;17.40;99.90;;;;;;20886798;28;20045;-83
